Time;durP1;ratioP1;P1;durP2;ratioP2;P2;SDS_P1;SDS_P2;PMS_P1;PMS_P2;Temp;Humidity;BMP_temperature;BMP_pressure;BME280_temperature;BME280_humidity;BME280_pressure;Samples;Min_cycle;Max_cycle;Signal;HPM_P1;HPM_P2
2022/10/08 00:00:51;;;;;;;5.10;2.80;;;;;;;-141.28;100.00;49920.00;5093165;28;20619;-74
2022/10/08 00:03:21;;;;;;;4.43;2.80;;;;;;;-141.28;100.00;49886.66;5075371;28;20233;-74
2022/10/08 00:05:56;;;;;;;4.63;3.10;;;;;;;-141.28;100.00;49796.38;5093302;28;20287;-74
2022/10/08 00:08:23;;;;;;;4.60;3.00;;;;;;;-141.28;100.00;49843.47;5092852;28;20305;-75
2022/10/08 00:10:53;;;;;;;5.47;2.70;;;;;;;-141.28;100.00;49825.81;5092323;28;20256;-73
2022/10/08 00:13:21;;;;;;;3.93;2.70;;;;;;;-141.28;100.00;49831.69;5092706;28;20213;-74
2022/10/08 00:15:49;;;;;;;6.27;2.83;;;;;;;-141.28;100.00;49831.69;5092684;28;20227;-73
2022/10/08 00:18:17;;;;;;;3.53;2.70;;;;;;;-141.28;100.00;49827.78;5092850;28;20187;-75
2022/10/08 00:20:45;;;;;;;4.47;3.03;;;;;;;-141.28;100.00;49859.19;5093309;28;20196;-74
2022/10/08 00:23:12;;;;;;;5.13;3.13;;;;;;;-141.28;100.00;49839.56;5092542;28;20192;-74
2022/10/08 00:25:40;;;;;;;4.47;3.10;;;;;;;-141.28;100.00;49874.88;5091954;28;20283;-74
2022/10/08 00:28:07;;;;;;;6.23;2.80;;;;;;;-141.28;100.00;49886.66;5092759;28;20199;-76
2022/10/08 00:30:36;;;;;;;4.03;3.10;;;;;;;-141.28;100.00;49900.38;5092974;28;20298;-77
2022/10/08 00:33:05;;;;;;;5.67;3.33;;;;;;;-141.28;100.00;49945.53;5092548;28;20674;-75
2022/10/08 00:35:37;;;;;;;6.57;2.97;;;;;;;-141.28;100.00;49898.44;5092767;28;20231;-74
2022/10/08 00:38:07;;;;;;;5.13;3.00;;;;;;;-141.28;100.00;49957.31;5079915;28;20278;-74
2022/10/08 00:40:42;;;;;;;8.77;3.30;;;;;;;-141.28;100.00;50110.38;5091975;28;20199;-76
2022/10/08 00:43:15;;;;;;;5.40;3.20;;;;;;;-141.28;100.00;50043.66;5093954;28;20595;-74
2022/10/08 00:45:43;;;;;;;6.93;4.80;;;;;;;-141.28;100.00;49878.81;5094338;28;20291;-74
2022/10/08 00:48:12;;;;;;;10.73;4.40;;;;;;;-141.28;100.00;49823.84;5091828;28;20199;-74
2022/10/08 00:50:39;;;;;;;9.80;4.73;;;;;;;-141.28;100.00;49839.56;5092049;28;20286;-75
2022/10/08 00:53:09;;;;;;;6.27;3.93;;;;;;;-141.28;100.00;49843.47;5092460;28;20340;-73
2022/10/08 00:55:39;;;;;;;4.07;3.50;;;;;;;-141.28;100.00;49839.56;5092024;28;20306;-75
2022/10/08 00:58:12;;;;;;;9.07;3.93;;;;;;;-141.28;100.00;49872.91;5092009;28;20277;-76
2022/10/08 01:00:40;;;;;;;9.90;3.43;;;;;;;-141.28;100.00;49872.91;5091903;28;20735;-75
2022/10/08 01:03:07;;;;;;;5.53;3.37;;;;;;;-141.28;100.00;49855.25;5092230;28;20222;-74
2022/10/08 01:05:44;;;;;;;4.90;3.00;;;;;;;-141.28;100.00;49835.63;5078700;28;20204;-75
2022/10/08 01:08:19;;;;;;;3.67;2.90;;;;;;;-141.28;100.00;49808.16;5091480;28;20227;-74
2022/10/08 01:10:57;;;;;;;7.50;2.50;;;;;;;-141.28;100.00;49837.59;5091820;28;20199;-74
2022/10/08 01:13:35;;;;;;;3.63;3.00;;;;;;;-141.28;100.00;49851.31;5091849;28;20223;-72
2022/10/08 01:16:13;;;;;;;10.13;2.87;;;;;;;-141.28;100.00;49855.25;5092053;28;20227;-76
2022/10/08 01:18:49;;;;;;;4.07;3.10;;;;;;;-141.28;100.00;49851.31;5092186;28;20199;-75
2022/10/08 01:21:26;;;;;;;7.20;2.90;;;;;;;-141.28;100.00;49898.44;5091700;28;20252;-73
2022/10/08 01:25:31;;;;;;;4.17;3.20;;;;;;;-141.28;100.00;49933.75;5091873;28;20282;-75
2022/10/08 01:27:20;;;;;;;5.27;3.37;;;;;;;-141.28;100.00;49976.94;5082967;28;20665;-73
2022/10/08 01:29:50;;;;;;;3.73;2.70;;;;;;;-141.28;100.00;49939.63;5094367;28;20195;-73
2022/10/08 01:32:20;;;;;;;5.77;3.20;;;;;;;-141.28;100.00;49902.34;5091925;28;20268;-75
2022/10/08 01:34:50;;;;;;;8.33;3.37;;;;;;;-141.28;100.00;49870.94;5079301;28;20256;-73
2022/10/08 01:37:23;;;;;;;4.13;3.00;;;;;;;-141.28;100.00;49933.75;5090320;28;20227;-74
2022/10/08 01:39:54;;;;;;;3.53;3.00;;;;;;;-141.28;100.00;49882.72;5091814;28;20203;-75
2022/10/08 01:42:25;;;;;;;6.00;3.20;;;;;;;-141.28;100.00;49910.19;5086554;28;20198;-75
2022/10/08 01:44:57;;;;;;;5.20;3.00;;;;;;;-141.28;100.00;49921.97;5090304;28;20198;-72
2022/10/08 01:47:27;;;;;;;5.97;2.93;;;;;;;-141.28;100.00;49890.56;5091272;28;20196;-75
2022/10/08 01:50:01;;;;;;;4.73;3.07;;;;;;;-141.28;100.00;49933.75;5090560;28;20214;-75
2022/10/08 01:52:33;;;;;;;4.57;2.93;;;;;;;-141.28;100.00;49927.88;5091561;28;20199;-74
2022/10/08 01:55:03;;;;;;;6.20;3.70;;;;;;;-141.28;100.00;49965.16;5091348;28;20192;-75
2022/10/08 01:57:34;;;;;;;6.47;3.87;;;;;;;-141.28;100.00;49920.00;5091108;28;20262;-74
2022/10/08 02:00:07;;;;;;;7.13;3.43;;;;;;;-141.28;100.00;49953.38;5090002;28;20721;-75
2022/10/08 02:02:34;;;;;;;6.10;4.20;;;;;;;-141.28;100.00;49949.44;5091466;28;20454;-75
2022/10/08 02:05:00;;;;;;;6.93;3.50;;;;;;;-141.28;100.00;49959.25;5087928;28;20199;-74
2022/10/08 02:07:31;;;;;;;7.70;3.93;;;;;;;-141.28;100.00;49961.22;5091373;28;20304;-75
2022/10/08 02:10:06;;;;;;;9.73;4.10;;;;;;;-141.28;100.00;49984.78;5091188;28;20277;-73
2022/10/08 02:12:35;;;;;;;7.40;4.07;;;;;;;-141.28;100.00;50016.19;5091449;28;20194;-73
2022/10/08 02:15:04;;;;;;;9.10;4.67;;;;;;;-141.28;100.00;50014.22;5091329;28;20192;-75
2022/10/08 02:17:42;;;;;;;7.97;5.23;;;;;;;-141.28;100.00;50016.19;5090121;28;20313;-73
2022/10/08 02:20:18;;;;;;;10.03;5.30;;;;;;;-141.28;100.00;50078.97;5091061;28;20685;-74
2022/10/08 02:22:53;;;;;;;14.63;6.30;;;;;;;-141.28;100.00;50035.81;5091227;28;20520;-73
2022/10/08 02:25:28;;;;;;;14.10;7.30;;;;;;;-141.28;100.00;50088.78;5090780;28;20858;-73
2022/10/08 02:28:05;;;;;;;11.60;6.57;;;;;;;-141.28;100.00;50102.53;5091402;28;20532;-75
2022/10/08 02:30:41;;;;;;;10.97;6.87;;;;;;;-141.28;100.00;50080.94;5090863;28;20256;-74
2022/10/08 02:33:14;;;;;;;12.03;6.63;;;;;;;-141.28;100.00;50092.72;5091266;28;20218;-74
2022/10/08 02:35:48;;;;;;;11.53;7.00;;;;;;;-141.28;100.00;50039.72;5091297;28;20445;-72
2022/10/08 02:38:19;;;;;;;10.20;7.30;;;;;;;-141.28;100.00;50055.44;5090925;28;20449;-75
2022/10/08 02:40:50;;;;;;;12.10;7.30;;;;;;;-141.28;100.00;50051.50;5090924;28;20541;-74
2022/10/08 02:43:24;;;;;;;13.07;7.67;;;;;;;-141.28;100.00;50035.81;5090600;28;20198;-73
2022/10/08 02:45:59;;;;;;;13.63;6.70;;;;;;;-141.28;100.00;50039.72;5091378;28;20502;-74
2022/10/08 02:48:30;;;;;;;16.17;7.03;;;;;;;-141.28;100.00;50026.00;5091145;28;20650;-73
2022/10/08 02:51:01;;;;;;;11.13;6.70;;;;;;;-141.28;100.00;49998.50;5093454;28;20672;-75
2022/10/08 02:53:29;;;;;;;9.33;6.57;;;;;;;-141.28;100.00;49941.59;5093527;28;20552;-74
2022/10/08 02:56:08;;;;;;;11.40;6.20;;;;;;;-141.28;100.00;49949.44;5094613;28;20546;-76
2022/10/08 02:58:36;;;;;;;13.83;6.83;;;;;;;-141.28;100.00;49949.44;5094455;28;20518;-74
2022/10/08 03:01:09;;;;;;;10.57;5.47;;;;;;;-141.28;100.00;49902.34;5094527;28;20511;-76
2022/10/08 03:03:43;;;;;;;9.77;6.50;;;;;;;-141.28;100.00;49904.31;5094439;28;20227;-74
2022/10/08 03:06:14;;;;;;;12.60;6.17;;;;;;;-141.28;100.00;49880.75;5094232;28;20986;-74
2022/10/08 03:08:47;;;;;;;12.43;6.70;;;;;;;-141.28;100.00;49870.94;5094215;28;20280;-73
2022/10/08 03:11:16;;;;;;;13.63;6.17;;;;;;;-141.28;100.00;49855.25;5076125;28;20210;-74
2022/10/08 03:13:48;;;;;;;10.23;6.33;;;;;;;-141.28;100.00;49823.84;5075859;28;20507;-74
2022/10/08 03:16:20;;;;;;;12.60;6.93;;;;;;;-141.28;100.00;49780.69;5093903;28;20288;-74
2022/10/08 03:18:47;;;;;;;14.20;6.47;;;;;;;-141.28;100.00;49780.69;5094159;28;20510;-74
2022/10/08 03:21:15;;;;;;;10.03;6.10;;;;;;;-141.28;100.00;49717.88;5093713;28;20454;-74
2022/10/08 03:23:42;;;;;;;10.90;6.33;;;;;;;-141.28;100.00;49694.31;5094131;28;20503;-74
2022/10/08 03:26:10;;;;;;;10.60;6.00;;;;;;;-141.28;100.00;49692.38;5093948;28;20507;-74
2022/10/08 03:28:38;;;;;;;13.03;8.20;;;;;;;-141.28;100.00;49643.31;5093855;28;20445;-74
2022/10/08 03:31:07;;;;;;;18.43;7.90;;;;;;;-141.28;100.00;49615.84;5093640;28;20947;-73
2022/10/08 03:33:34;;;;;;;12.43;7.53;;;;;;;-141.28;100.00;49562.84;5093856;28;20438;-75
2022/10/08 03:36:01;;;;;;;13.33;7.17;;;;;;;-141.28;100.00;49549.13;5093760;28;20494;-74
2022/10/08 03:38:29;;;;;;;11.07;6.93;;;;;;;-141.28;100.00;49509.88;5095101;28;20495;-75
2022/10/08 03:40:57;;;;;;;18.57;7.43;;;;;;;-141.28;100.00;49507.91;5094301;28;20437;-73
2022/10/08 03:43:30;;;;;;;14.37;7.13;;;;;;;-141.28;100.00;49478.47;5093340;28;21009;-74
2022/10/08 03:45:57;;;;;;;11.43;7.33;;;;;;;-141.28;100.00;49509.88;5093360;28;20662;-73
2022/10/08 03:48:26;;;;;;;18.53;7.57;;;;;;;-141.28;100.00;49466.69;5093509;28;20499;-74
2022/10/08 03:50:54;;;;;;;10.43;6.93;;;;;;;-141.28;100.00;49447.06;5091829;28;20438;-74
2022/10/08 03:53:22;;;;;;;14.67;7.27;;;;;;;-141.28;100.00;49403.91;5093580;28;20494;-74
2022/10/08 03:55:49;;;;;;;19.07;9.40;;;;;;;-141.28;100.00;49435.31;5093164;28;20445;-74
2022/10/08 03:58:16;;;;;;;24.37;8.77;;;;;;;-141.28;100.00;49390.16;5093112;28;20496;-76
2022/10/08 04:00:43;;;;;;;28.50;7.97;;;;;;;-141.28;100.00;49384.28;5092285;28;20522;-74
2022/10/08 04:03:11;;;;;;;14.80;8.10;;;;;;;-141.28;100.00;49376.44;5092873;28;20905;-74
2022/10/08 04:05:48;;;;;;;13.30;6.97;;;;;;;-141.28;100.00;49380.34;5092915;28;20452;-74
2022/10/08 04:08:15;;;;;;;14.23;6.13;;;;;;;-141.28;100.00;49356.81;5092677;28;20539;-74
2022/10/08 04:10:43;;;;;;;9.87;6.60;;;;;;;-141.28;100.00;49339.16;5092912;28;20927;-75
2022/10/08 04:13:10;;;;;;;13.63;7.20;;;;;;;-141.28;100.00;49295.97;5075050;28;20495;-74
2022/10/08 04:15:37;;;;;;;23.10;8.03;;;;;;;-141.28;100.00;49278.31;5092836;28;20437;-75
2022/10/08 04:18:06;;;;;;;18.53;8.40;;;;;;;-141.28;100.00;49274.41;5092944;28;20481;-73
2022/10/08 04:20:33;;;;;;;24.83;8.50;;;;;;;-141.28;100.00;49270.47;5092949;28;20594;-74
2022/10/08 04:23:02;;;;;;;18.77;7.70;;;;;;;-141.28;100.00;49264.59;5092737;28;20491;-73
2022/10/08 04:25:29;;;;;;;15.23;7.30;;;;;;;-141.28;100.00;49274.41;5092128;28;20507;-73
2022/10/08 04:27:56;;;;;;;16.70;7.23;;;;;;;-141.28;100.00;49252.81;5092235;28;20235;-75
2022/10/08 04:30:23;;;;;;;22.00;7.27;;;;;;;-141.28;100.00;49235.16;5092807;28;20441;-73
2022/10/08 04:32:52;;;;;;;13.10;7.13;;;;;;;-141.28;100.00;49243.00;5092392;28;20525;-74
2022/10/08 04:35:19;;;;;;;19.47;7.70;;;;;;;-141.28;100.00;49207.69;5092632;28;20503;-74
2022/10/08 04:37:45;;;;;;;22.23;7.97;;;;;;;-141.28;100.00;49211.59;5093249;28;20481;-73
2022/10/08 04:40:16;;;;;;;14.43;7.23;;;;;;;-141.28;100.00;49199.84;5092658;28;20503;-74
2022/10/08 04:42:43;;;;;;;17.00;7.60;;;;;;;-141.28;100.00;49193.94;5092032;28;20453;-75
2022/10/08 04:45:10;;;;;;;28.40;7.90;;;;;;;-141.28;100.00;49178.25;5092361;28;20441;-74
2022/10/08 04:47:37;;;;;;;14.10;6.93;;;;;;;-141.28;100.00;49182.19;5091841;28;20479;-75
2022/10/08 04:50:05;;;;;;;19.87;7.13;;;;;;;-141.28;100.00;49164.53;5090741;28;20437;-74
2022/10/08 04:52:32;;;;;;;27.77;7.77;;;;;;;-141.28;100.00;49172.38;5091913;28;20961;-74
2022/10/08 04:54:59;;;;;;;14.53;7.00;;;;;;;-141.28;100.00;49168.44;5091799;28;20445;-74
2022/10/08 04:57:28;;;;;;;29.13;7.80;;;;;;;-141.28;100.00;49146.84;5091581;28;20493;-74
2022/10/08 04:59:55;;;;;;;18.83;7.40;;;;;;;-141.28;100.00;49152.75;5091744;28;20453;-74
2022/10/08 05:02:23;;;;;;;13.37;6.53;;;;;;;-141.28;100.00;49168.44;5091717;28;20503;-74
2022/10/08 05:04:51;;;;;;;20.70;6.60;;;;;;;-141.28;100.00;49182.19;5092110;28;20852;-74
2022/10/08 05:07:18;;;;;;;13.20;6.13;;;;;;;-141.28;100.00;49172.38;5091597;28;21004;-75
2022/10/08 05:09:45;;;;;;;12.97;6.43;;;;;;;-141.28;100.00;49180.22;5091910;28;20518;-71
2022/10/08 05:12:12;;;;;;;14.23;6.90;;;;;;;-141.28;100.00;49184.13;5091512;28;20494;-73
2022/10/08 05:14:40;;;;;;;16.77;7.07;;;;;;;-141.28;100.00;49172.38;5091735;28;20437;-73
2022/10/08 05:17:08;;;;;;;14.53;7.30;;;;;;;-141.28;100.00;49178.25;5073140;28;20556;-74
2022/10/08 05:19:35;;;;;;;15.00;7.80;;;;;;;-141.28;100.00;49184.13;5091361;28;20248;-72
2022/10/08 05:22:02;;;;;;;36.67;9.57;;;;;;;-141.28;100.00;49188.06;5091377;28;20496;-75
2022/10/08 05:24:28;;;;;;;14.80;7.63;;;;;;;-141.28;100.00;49176.28;5091436;28;20437;-73
2022/10/08 05:26:55;;;;;;;23.70;8.37;;;;;;;-141.28;100.00;49199.84;5091358;28;20449;-74
2022/10/08 05:29:23;;;;;;;22.13;8.37;;;;;;;-141.28;100.00;49219.47;5091384;28;20438;-74
2022/10/08 05:31:51;;;;;;;21.60;8.80;;;;;;;-141.28;100.00;49203.75;5091168;28;20438;-73
2022/10/08 05:34:20;;;;;;;17.90;8.13;;;;;;;-141.28;100.00;49246.94;5091372;28;20928;-74
2022/10/08 05:36:48;;;;;;;15.67;8.17;;;;;;;-141.28;100.00;49246.94;5091073;28;20914;-74
2022/10/08 05:39:14;;;;;;;20.07;9.27;;;;;;;-141.28;100.00;49315.59;5091669;28;20256;-73
2022/10/08 05:41:42;;;;;;;12.53;6.80;;;;;;;-141.28;100.00;49403.91;5091351;28;20441;-75
2022/10/08 05:44:11;;;;;;;14.43;7.53;;;;;;;-141.28;100.00;49490.25;5091285;28;20441;-74
2022/10/08 05:46:39;;;;;;;14.40;7.47;;;;;;;-141.28;100.00;49588.34;5091550;28;20282;-75
2022/10/08 05:49:13;;;;;;;15.93;6.07;;;;;;;-141.28;100.00;49735.53;5093056;28;20195;-75
2022/10/08 05:51:40;;;;;;;16.23;7.17;;;;;;;-141.28;100.00;49802.25;5089889;28;20676;-73
2022/10/08 05:54:08;;;;;;;11.13;7.50;;;;;;;-141.28;100.00;49906.28;5091197;28;20658;-74
2022/10/08 05:56:35;;;;;;;12.10;6.30;;;;;;;-141.28;100.00;49984.78;5090798;28;20187;-74
2022/10/08 05:59:02;;;;;;;11.40;6.00;;;;;;;-141.28;100.00;50043.66;5090694;28;20199;-76
2022/10/08 06:01:32;;;;;;;9.57;5.77;;;;;;;-141.28;100.00;50114.31;5091084;28;20203;-73
2022/10/08 06:04:01;;;;;;;17.70;6.33;;;;;;;-141.28;100.00;50192.81;5091376;28;20268;-72
2022/10/08 06:06:29;;;;;;;18.67;6.50;;;;;;;-141.28;100.00;50343.94;5091193;28;20260;-73
2022/10/08 06:08:57;;;;;;;17.97;6.27;;;;;;;-141.28;100.00;50455.84;5070984;28;20196;-73
2022/10/08 06:11:25;;;;;;;13.40;6.20;;;;;;;-141.28;100.00;50538.28;5091178;28;20323;-74
2022/10/08 06:13:52;;;;;;;12.13;5.70;;;;;;;-141.28;100.00;50534.34;5090666;28;20196;-73
2022/10/08 06:16:20;;;;;;;16.90;7.20;;;;;;;-141.28;100.00;50585.38;5090941;28;20673;-73
2022/10/08 06:18:48;;;;;;;13.57;8.80;;;;;;;-141.28;100.00;50571.63;5071537;28;20417;-73
2022/10/08 06:21:17;;;;;;;13.20;5.97;;;;;;;-141.28;100.00;50577.53;5090778;28;20222;-73
2022/10/08 06:23:48;;;;;;;11.13;6.07;;;;;;;-141.28;100.00;50712.97;5091294;28;20635;-75
2022/10/08 06:26:18;;;;;;;9.97;5.97;;;;;;;-141.28;100.00;50860.19;5094646;28;20200;-75
2022/10/08 06:28:46;;;;;;;16.33;8.20;;;;;;;-141.28;100.00;50820.94;5094828;28;20203;-74
2022/10/08 06:31:17;;;;;;;19.50;8.70;;;;;;;-141.28;100.00;50781.69;5095141;28;20195;-75
2022/10/08 06:33:45;;;;;;;18.07;7.60;;;;;;;-141.28;100.00;50765.97;5094674;28;20210;-75
2022/10/08 06:36:15;;;;;;;14.13;6.90;;;;;;;-141.28;100.00;50740.47;5094761;28;20192;-73
2022/10/08 06:38:43;;;;;;;9.47;6.33;;;;;;;-141.28;100.00;50744.38;5094225;28;20219;-74
2022/10/08 06:41:18;;;;;;;16.23;6.77;;;;;;;-141.28;100.00;50746.34;5094974;28;20199;-75
2022/10/08 06:43:47;;;;;;;12.93;6.90;;;;;;;-141.28;100.00;50762.06;5094803;28;20195;-74
2022/10/08 06:46:25;;;;;;;11.93;5.90;;;;;;;-141.28;100.00;50718.88;5094503;28;20200;-75
2022/10/08 06:48:54;;;;;;;11.07;5.63;;;;;;;-141.28;100.00;50644.28;5095057;28;20195;-74
2022/10/08 06:51:21;;;;;;;12.63;6.73;;;;;;;-141.28;100.00;50738.50;5092905;28;20287;-74
2022/10/08 06:53:55;;;;;;;10.23;6.70;;;;;;;-141.28;100.00;50534.34;5094637;28;20226;-75
2022/10/08 06:56:25;;;;;;;8.93;6.40;;;;;;;-141.28;100.00;50483.31;5094223;28;20653;-74
2022/10/08 06:58:52;;;;;;;14.43;6.47;;;;;;;-141.28;100.00;50467.59;5093998;28;20285;-73
2022/10/08 07:01:22;;;;;;;9.37;5.87;;;;;;;-141.28;100.00;50424.44;5072467;28;20204;-75
2022/10/08 07:03:51;;;;;;;15.37;7.70;;;;;;;-141.28;100.00;50322.34;5087231;28;20202;-75
2022/10/08 07:06:20;;;;;;;12.70;7.37;;;;;;;-141.28;100.00;50169.28;5093948;28;20199;-74
2022/10/08 07:08:51;;;;;;;15.87;6.90;;;;;;;-141.28;100.00;50024.03;5094215;28;20281;-74
2022/10/08 07:11:20;;;;;;;14.43;6.10;;;;;;;-141.28;100.00;49969.06;5082188;28;20191;-75
2022/10/08 07:13:49;;;;;;;11.47;6.03;;;;;;;-141.28;100.00;49874.88;5093646;28;20240;-74
2022/10/08 07:16:18;;;;;;;9.87;6.13;;;;;;;-141.28;100.00;49780.69;5093782;28;20194;-76
2022/10/08 07:18:46;;;;;;;12.73;6.00;;;;;;;-141.28;100.00;49694.31;5093618;28;20227;-75
2022/10/08 07:21:15;;;;;;;16.30;6.00;;;;;;;-141.28;100.00;49641.34;5093726;28;20207;-74
2022/10/08 07:23:44;;;;;;;12.03;6.60;;;;;;;-141.28;100.00;49588.34;5093846;28;20210;-72
2022/10/08 07:26:14;;;;;;;11.33;6.70;;;;;;;-141.28;100.00;49615.84;5094150;28;20200;-73
2022/10/08 07:28:44;;;;;;;13.03;7.23;;;;;;;-141.28;100.00;49645.28;5072081;28;20204;-74
2022/10/08 07:31:15;;;;;;;12.13;6.63;;;;;;;-141.28;100.00;49692.38;5085911;28;20286;-73
2022/10/08 07:33:42;;;;;;;11.53;6.67;;;;;;;-141.28;100.00;49647.22;5093656;28;20195;-74
2022/10/08 07:36:11;;;;;;;12.80;7.43;;;;;;;-141.28;100.00;49568.75;5093610;28;20642;-75
2022/10/08 07:38:40;;;;;;;10.03;6.90;;;;;;;-141.28;100.00;49527.53;5075250;28;20223;-75
2022/10/08 07:41:08;;;;;;;12.37;7.33;;;;;;;-141.28;100.00;49509.88;5093798;28;20200;-73
2022/10/08 07:43:39;;;;;;;12.20;6.77;;;;;;;-141.28;100.00;49560.88;5093443;28;20658;-73
2022/10/08 07:46:08;;;;;;;14.50;7.00;;;;;;;-141.28;100.00;49517.72;5093175;28;20191;-74
2022/10/08 07:48:38;;;;;;;14.47;6.83;;;;;;;-141.28;100.00;49480.44;5093011;28;20256;-73
2022/10/08 07:51:12;;;;;;;15.27;6.53;;;;;;;-141.28;100.00;49466.69;5091853;28;20664;-74
2022/10/08 07:53:40;;;;;;;17.20;7.10;;;;;;;-141.28;100.00;49419.59;5095523;28;20269;-74
2022/10/08 07:56:08;;;;;;;11.50;7.17;;;;;;;-141.28;100.00;49384.28;5093417;28;20238;-73
2022/10/08 07:58:36;;;;;;;14.03;7.43;;;;;;;-141.28;100.00;49345.03;5093324;28;20280;-73
2022/10/08 08:01:06;;;;;;;15.47;7.73;;;;;;;-141.28;100.00;49350.94;5093346;28;20242;-74
2022/10/08 08:03:33;;;;;;;17.27;7.43;;;;;;;-141.28;100.00;49294.03;5093352;28;20303;-73
2022/10/08 08:06:02;;;;;;;10.20;6.80;;;;;;;-141.28;100.00;49333.25;5092845;28;20253;-75
2022/10/08 08:08:30;;;;;;;18.33;7.00;;;;;;;-141.28;100.00;49478.47;5092729;28;20227;-75
2022/10/08 08:10:58;;;;;;;19.80;10.53;;;;;;;-141.28;100.00;49250.84;5093241;28;20187;-77
2022/10/08 08:13:26;;;;;;;13.47;7.03;;;;;;;-141.28;100.00;49209.66;5092884;28;20260;-75
2022/10/08 08:15:58;;;;;;;13.17;6.57;;;;;;;-141.28;100.00;49223.38;5093178;28;20654;-75
2022/10/08 08:18:28;;;;;;;14.47;6.40;;;;;;;-141.28;100.00;49258.69;5092747;28;20223;-74
2022/10/08 08:21:00;;;;;;;13.73;6.37;;;;;;;-141.28;100.00;49246.94;5093275;28;20650;-73
2022/10/08 08:23:32;;;;;;;10.70;6.33;;;;;;;-141.28;100.00;49278.31;5097850;28;20211;-75
2022/10/08 08:26:01;;;;;;;12.10;6.10;;;;;;;-141.28;100.00;49301.88;5076412;28;20206;-75
2022/10/08 08:28:29;;;;;;;10.93;6.90;;;;;;;-141.28;100.00;49266.56;5074721;28;20207;-73
2022/10/08 08:31:05;;;;;;;17.43;7.40;;;;;;;-141.28;100.00;49219.47;5092930;28;20253;-76
2022/10/08 08:33:38;;;;;;;13.53;7.10;;;;;;;-141.28;100.00;49199.84;5074647;28;20196;-73
2022/10/08 08:36:05;;;;;;;13.17;8.00;;;;;;;-141.28;100.00;49211.59;5092864;28;20221;-74
2022/10/08 08:38:36;;;;;;;10.90;8.00;;;;;;;-141.28;100.00;49152.75;5092634;28;20273;-74
2022/10/08 08:41:19;;;;;;;16.33;7.90;;;;;;;-141.28;100.00;49180.22;5092926;28;20260;-74
2022/10/08 08:43:47;;;;;;;15.97;7.63;;;;;;;-141.28;100.00;49182.19;5092625;28;20693;-74
2022/10/08 08:46:19;;;;;;;11.57;7.20;;;;;;;-141.28;100.00;49164.53;5091946;28;20639;-76
2022/10/08 08:48:46;;;;;;;11.70;6.70;;;;;;;-141.28;100.00;49144.91;5092275;28;20200;-75
2022/10/08 08:51:13;;;;;;;12.20;6.50;;;;;;;-141.28;100.00;49119.38;5090880;28;20195;-73
2022/10/08 08:53:43;;;;;;;12.30;6.30;;;;;;;-141.28;100.00;49133.13;5092178;28;20200;-75
2022/10/08 08:56:16;;;;;;;11.23;6.50;;;;;;;-141.28;100.00;49172.38;5091937;28;20288;-75
2022/10/08 08:58:50;;;;;;;10.73;6.10;;;;;;;-141.28;100.00;49148.81;5091513;28;20822;-74
2022/10/08 09:01:24;;;;;;;16.23;6.97;;;;;;;-141.28;100.00;49172.38;5092003;28;20199;-75
2022/10/08 09:03:55;;;;;;;14.13;6.77;;;;;;;-141.28;100.00;49150.78;5091988;28;20199;-74
2022/10/08 09:06:24;;;;;;;11.77;5.97;;;;;;;-141.28;100.00;49125.28;5073860;28;20191;-76
2022/10/08 09:08:57;;;;;;;12.07;5.77;;;;;;;-141.28;100.00;49129.19;5091939;28;20333;-78
2022/10/08 09:11:25;;;;;;;10.37;5.37;;;;;;;-141.28;100.00;49107.63;5092215;28;20191;-74
2022/10/08 09:13:58;;;;;;;15.07;5.87;;;;;;;-141.28;100.00;49066.41;5092321;28;20200;-75
2022/10/08 09:16:27;;;;;;;9.73;5.00;;;;;;;-141.28;100.00;49103.69;5091795;28;20203;-76
2022/10/08 09:18:55;;;;;;;8.77;5.20;;;;;;;-141.28;100.00;49125.28;5092011;28;20277;-73
2022/10/08 09:21:28;;;;;;;6.90;4.70;;;;;;;-141.28;100.00;49062.50;5091753;28;20202;-74
2022/10/08 09:23:57;;;;;;;8.23;4.77;;;;;;;-141.28;100.00;49086.03;5092171;28;20195;-74
2022/10/08 09:26:26;;;;;;;9.50;5.20;;;;;;;-141.28;100.00;49192.00;5091840;28;20248;-74
2022/10/08 09:28:55;;;;;;;10.17;4.53;;;;;;;-141.28;100.00;49168.44;5091387;28;20666;-73
2022/10/08 09:31:36;;;;;;;7.10;4.40;;;;;;;-141.28;100.00;49186.09;5091265;28;20192;-73
2022/10/08 09:34:16;;;;;;;5.40;3.67;;;;;;;-141.28;100.00;49176.28;5091541;28;20198;-73
2022/10/08 09:36:45;;;;;;;5.20;3.43;;;;;;;-141.28;100.00;49133.13;5091247;28;20199;-75
2022/10/08 09:39:19;;;;;;;5.90;3.47;;;;;;;-141.28;100.00;49378.41;5079168;28;20299;-74
2022/10/08 09:41:48;;;;;;;10.73;4.50;;;;;;;-141.28;100.00;49109.59;5091377;28;20596;-74
2022/10/08 09:44:18;;;;;;;4.77;3.57;;;;;;;-141.28;93.57;49068.38;5091613;28;20253;-75
2022/10/08 09:46:47;;;;;;;11.00;4.53;;;;;;;-141.28;94.18;49086.03;5091655;28;20295;-73
2022/10/08 09:49:26;;;;;;;5.93;3.50;;;;;;;-141.28;97.02;48999.72;5091318;28;20662;-75
2022/10/08 09:51:53;;;;;;;6.77;3.90;;;;;;;-141.28;95.76;49040.91;5090910;28;20291;-74
2022/10/08 09:54:25;;;;;;;8.13;3.87;;;;;;;-141.28;95.56;49115.47;5090947;28;20196;-77
2022/10/08 09:56:54;;;;;;;7.17;3.70;;;;;;;-141.28;91.78;49089.97;5091527;28;20272;-76
2022/10/08 09:59:24;;;;;;;6.50;3.80;;;;;;;-141.28;89.37;49076.22;5093800;28;20276;-74
2022/10/08 10:01:52;;;;;;;4.47;3.50;;;;;;;-141.28;82.26;49409.78;5095572;28;20203;-75
2022/10/08 10:04:28;;;;;;;7.17;3.07;;;;;;;-141.28;83.43;49086.03;5095321;28;20203;-73
2022/10/08 10:06:55;;;;;;;5.60;3.17;;;;;;;-141.28;84.74;49070.34;5095299;28;20330;-76
2022/10/08 10:09:30;;;;;;;5.87;3.30;;;;;;;-141.28;81.99;49046.78;5095467;28;20223;-74
2022/10/08 10:12:05;;;;;;;7.77;3.10;;;;;;;-141.28;80.79;49031.09;5095872;28;20205;-76
2022/10/08 10:14:41;;;;;;;5.27;2.97;;;;;;;-141.28;70.65;49011.47;5082120;28;20196;-74
2022/10/08 10:17:17;;;;;;;8.13;3.50;;;;;;;-141.28;70.75;49031.09;5094979;28;20228;-75
2022/10/08 10:19:51;;;;;;;7.13;3.00;;;;;;;-141.28;75.36;48995.78;5095632;28;20220;-75
2022/10/08 10:22:24;;;;;;;8.33;3.40;;;;;;;-141.28;73.53;48993.81;5095030;28;20200;-77
2022/10/08 10:25:01;;;;;;;5.17;3.50;;;;;;;-141.28;73.75;49003.63;5095469;28;20230;-74
2022/10/08 10:27:34;;;;;;;5.17;3.10;;;;;;;-141.28;70.20;49038.94;5081656;28;20189;-75
2022/10/08 10:30:10;;;;;;;5.07;3.13;;;;;;;-141.28;69.97;49017.38;5094735;28;20268;-76
2022/10/08 10:32:43;;;;;;;5.60;3.40;;;;;;;-141.28;71.13;48991.84;5094694;28;20202;-75
2022/10/08 10:35:15;;;;;;;8.37;3.53;;;;;;;-141.28;72.13;48976.16;5094952;28;20198;-74
2022/10/08 10:37:47;;;;;;;14.73;3.40;;;;;;;-141.28;69.18;48980.09;5095228;28;20214;-75
2022/10/08 10:40:28;;;;;;;7.10;3.83;;;;;;;-141.28;68.41;48966.34;5073272;28;20224;-73
2022/10/08 10:43:08;;;;;;;15.83;4.27;;;;;;;-141.28;69.56;48993.81;5088675;28;20268;-74
2022/10/08 10:45:38;;;;;;;9.67;3.40;;;;;;;-141.28;66.95;48976.16;5094929;28;20653;-74
2022/10/08 10:48:07;;;;;;;4.33;3.00;;;;;;;-141.28;67.95;49029.13;5094416;28;20203;-74
2022/10/08 10:50:40;;;;;;;7.17;3.40;;;;;;;-141.28;71.02;48991.84;5093722;28;20229;-74
2022/10/08 10:53:19;;;;;;;3.77;3.20;;;;;;;-141.28;69.46;49003.63;5094533;28;20276;-74
2022/10/08 10:56:00;;;;;;;4.37;3.23;;;;;;;-141.28;68.51;48976.16;5094748;28;20660;-75
2022/10/08 10:58:40;;;;;;;6.33;3.20;;;;;;;-141.28;69.68;49101.72;5076640;28;20229;-74
2022/10/08 11:01:20;;;;;;;8.03;3.47;;;;;;;-141.28;68.72;48936.91;5094630;28;20565;-73
2022/10/08 11:03:59;;;;;;;7.00;3.47;;;;;;;-141.28;66.22;48976.16;5094693;28;20222;-74
2022/10/08 11:06:49;;;;;;;3.07;2.70;;;;;;;-141.28;71.86;48987.94;5095122;28;20203;-74
2022/10/08 11:09:24;;;;;;;3.83;3.23;;;;;;;-141.28;66.55;48991.84;5090391;28;20210;-75
2022/10/08 11:11:59;;;;;;;6.67;3.40;;;;;;;-141.28;70.65;49038.94;5094205;28;20190;-75
2022/10/08 11:14:46;;;;;;;6.13;3.27;;;;;;;-141.28;73.77;49035.03;5094713;28;20206;-74
2022/10/08 11:17:33;;;;;;;6.90;3.03;;;;;;;-141.28;72.20;49021.28;5094581;28;20221;-79
2022/10/08 11:20:15;;;;;;;4.13;2.97;;;;;;;-141.28;72.15;49015.41;5094073;28;20699;-74